^^
Meteo Knjazevac Station Historical Data
Daily Summary for May 22, 2021 Units:  Both    English   Metric
Daily Weekly Monthly Yearly Custom
  High: Low: Average:
Temperature: 68.5 °F /  20.3 °C 64.2 °F /  17.9 °C 66.1 °F /  18.9 °C
Dew Point: 66.7 °F /  19.3 °C 63.4 °F /  17.4 °C 64.8 °F /  18.2 °C
Humidity: 98% 93% 96%
Wind Speed: 2mph /  3.2km/h - 0.5mph /  0.8km/h
Wind Gust: 3mph /  4.8km/h - -
Wind- - West
Pressure: 29.98 in /  1015.1 hPa 29.97 in /  1014.8 hPa -
Precipitation: 0.00 in /  0 mm    
Historical Graphs
 
 
Tabular Data for May 22, 2021
Time Temperature Dew Point Pressure Wind Wind Speed Wind Gust Humidity Rainfall Rate (Hourly) solar Conditions
00:00 68.5 °F /  20.3 °C 66.7 °F /  19.3 °C 29.97in /  1014.8hPa Calm   2mph /  3.2km/h 94% 0.00in /  0mm 0 W/m2
00:10 68.5 °F /  20.3 °C 66.4 °F /  19.1 °C 29.97in /  1014.8hPa NNW 1mph /  1.6km/h 2mph /  3.2km/h 93% 0.00in /  0mm 0 W/m2
00:20 68 °F /  20 °C 65.9 °F /  18.8 °C 29.98in /  1015.1hPa Calm   2mph /  3.2km/h 93% 0.00in /  0mm 0 W/m2
00:30 67.8 °F /  19.9 °C 65.7 °F /  18.7 °C 29.98in /  1015.1hPa WSW 1mph /  1.6km/h 2mph /  3.2km/h 93% 0.00in /  0mm 0 W/m2
00:40 67.6 °F /  19.8 °C 65.9 °F /  18.8 °C 29.98in /  1015.1hPa Calm   2mph /  3.2km/h 94% 0.00in /  0mm 0 W/m2
00:50 67.5 °F /  19.7 °C 65.7 °F /  18.7 °C 29.98in /  1015.1hPa Calm     94% 0.00in /  0mm 0 W/m2
01:00 67.3 °F /  19.6 °C 65.5 °F /  18.6 °C 29.98in /  1015.1hPa Calm   1mph /  1.6km/h 94% 0.00in /  0mm 0 W/m2
01:10 67.1 °F /  19.5 °C 65.3 °F /  18.5 °C 29.98in /  1015.1hPa Calm     94% 0.00in /  0mm 0 W/m2
01:20 66.9 °F /  19.4 °C 65.4 °F /  18.6 °C 29.97in /  1014.8hPa Calm   2mph /  3.2km/h 95% 0.00in /  0mm 0 W/m2
01:30 66.4 °F /  19.1 °C 64.9 °F /  18.3 °C 29.97in /  1014.8hPa WSW 1mph /  1.6km/h 2mph /  3.2km/h 95% 0.00in /  0mm 0 W/m2
01:40 66.2 °F /  19 °C 64.7 °F /  18.2 °C 29.97in /  1014.8hPa Calm   2mph /  3.2km/h 95% 0.00in /  0mm 0 W/m2
01:50 65.8 °F /  18.8 °C 64.4 °F /  18 °C 29.98in /  1015.1hPa West 1mph /  1.6km/h 2mph /  3.2km/h 95% 0.00in /  0mm 0 W/m2
02:00 65.7 °F /  18.7 °C 64.2 °F /  17.9 °C 29.97in /  1014.8hPa Calm   1mph /  1.6km/h 95% 0.00in /  0mm 0 W/m2
02:10 65.5 °F /  18.6 °C 64.3 °F /  17.9 °C 29.97in /  1014.8hPa WSW 1mph /  1.6km/h 2mph /  3.2km/h 96% 0.00in /  0mm 0 W/m2
02:20 65.3 °F /  18.5 °C 64.1 °F /  17.8 °C 29.97in /  1014.8hPa Calm   2mph /  3.2km/h 96% 0.00in /  0mm 0 W/m2
02:30 65.1 °F /  18.4 °C 64 °F /  17.8 °C 29.98in /  1015.1hPa Calm   1mph /  1.6km/h 96% 0.00in /  0mm 0 W/m2
02:40 65.1 °F /  18.4 °C 64 °F /  17.8 °C 29.98in /  1015.1hPa Calm   2mph /  3.2km/h 96% 0.00in /  0mm 0 W/m2
02:50 64.9 °F /  18.3 °C 64.4 °F /  18 °C 29.97in /  1014.8hPa WSW 2mph /  3.2km/h 3mph /  4.8km/h 98% 0.00in /  0mm 0 W/m2
03:00 64.9 °F /  18.3 °C 64.4 °F /  18 °C 29.97in /  1014.8hPa North 1mph /  1.6km/h 3mph /  4.8km/h 98% 0.00in /  0mm 0 W/m2
03:10 64.8 °F /  18.2 °C 64.2 °F /  17.9 °C 29.98in /  1015.1hPa SSW 1mph /  1.6km/h 2mph /  3.2km/h 98% 0.00in /  0mm 0 W/m2
03:20 64.8 °F /  18.2 °C 64.2 °F /  17.9 °C 29.98in /  1015.1hPa Calm   1mph /  1.6km/h 98% 0.00in /  0mm 0 W/m2
03:30 64.8 °F /  18.2 °C 64.2 °F /  17.9 °C 29.98in /  1015.1hPa Calm   2mph /  3.2km/h 98% 0.00in /  0mm 0 W/m2
03:40 64.6 °F /  18.1 °C 63.4 °F /  17.4 °C 29.98in /  1015.1hPa SW 2mph /  3.2km/h 2mph /  3.2km/h 96% 0.00in /  0mm 0 W/m2
03:50 64.2 °F /  17.9 °C 63.6 °F /  17.6 °C 29.98in /  1015.1hPa WNW 1mph /  1.6km/h 2mph /  3.2km/h 98% 0.00in /  0mm 0 W/m2
Knjazevac, Serbia
Compliments of Weather Underground - 2 mb